sensor_id;sensor_type;location;lat;lon;timestamp;P1;durP1;ratioP1;P2;durP2;ratioP2
34481;SDS011;20720;48.886;9.388;2023-08-06T00:00:20;6.45;;;3.55;;
34481;SDS011;20720;48.886;9.388;2023-08-06T00:02:46;3.80;;;2.90;;
34481;SDS011;20720;48.886;9.388;2023-08-06T00:05:11;3.88;;;2.97;;
34481;SDS011;20720;48.886;9.388;2023-08-06T00:07:36;4.18;;;3.28;;
34481;SDS011;20720;48.886;9.388;2023-08-06T00:10:02;4.65;;;3.45;;
34481;SDS011;20720;48.886;9.388;2023-08-06T00:12:27;5.22;;;3.53;;
34481;SDS011;20720;48.886;9.388;2023-08-06T00:14:53;5.15;;;3.50;;
34481;SDS011;20720;48.886;9.388;2023-08-06T00:17:18;6.95;;;3.78;;
34481;SDS011;20720;48.886;9.388;2023-08-06T00:19:44;5.45;;;3.60;;
34481;SDS011;20720;48.886;9.388;2023-08-06T00:22:09;3.65;;;3.15;;
34481;SDS011;20720;48.886;9.388;2023-08-06T00:24:34;4.28;;;3.70;;
34481;SDS011;20720;48.886;9.388;2023-08-06T00:27:00;4.85;;;3.78;;
34481;SDS011;20720;48.886;9.388;2023-08-06T00:29:25;5.22;;;3.53;;
34481;SDS011;20720;48.886;9.388;2023-08-06T00:31:51;8.48;;;3.60;;
34481;SDS011;20720;48.886;9.388;2023-08-06T00:34:16;3.70;;;3.25;;
34481;SDS011;20720;48.886;9.388;2023-08-06T00:36:41;4.55;;;3.45;;
34481;SDS011;20720;48.886;9.388;2023-08-06T00:39:07;6.30;;;3.60;;
34481;SDS011;20720;48.886;9.388;2023-08-06T00:41:32;5.35;;;3.40;;
34481;SDS011;20720;48.886;9.388;2023-08-06T00:43:57;6.38;;;4.10;;
34481;SDS011;20720;48.886;9.388;2023-08-06T00:46:23;5.68;;;4.03;;
34481;SDS011;20720;48.886;9.388;2023-08-06T00:48:48;7.22;;;3.60;;
34481;SDS011;20720;48.886;9.388;2023-08-06T00:51:15;6.60;;;4.30;;
34481;SDS011;20720;48.886;9.388;2023-08-06T00:53:40;7.60;;;4.40;;
34481;SDS011;20720;48.886;9.388;2023-08-06T00:56:06;5.68;;;4.30;;
34481;SDS011;20720;48.886;9.388;2023-08-06T00:58:32;6.80;;;4.70;;
34481;SDS011;20720;48.886;9.388;2023-08-06T01:00:58;9.48;;;4.80;;
34481;SDS011;20720;48.886;9.388;2023-08-06T01:03:23;5.45;;;4.13;;
34481;SDS011;20720;48.886;9.388;2023-08-06T01:05:48;6.85;;;5.00;;
34481;SDS011;20720;48.886;9.388;2023-08-06T01:13:53;7.40;;;3.78;;
34481;SDS011;20720;48.886;9.388;2023-08-06T01:16:27;5.00;;;3.67;;
34481;SDS011;20720;48.886;9.388;2023-08-06T01:18:55;7.25;;;3.95;;
34481;SDS011;20720;48.886;9.388;2023-08-06T01:21:23;5.55;;;4.15;;
34481;SDS011;20720;48.886;9.388;2023-08-06T01:23:48;4.93;;;3.85;;
34481;SDS011;20720;48.886;9.388;2023-08-06T01:31:31;4.75;;;3.70;;
34481;SDS011;20720;48.886;9.388;2023-08-06T01:33:59;5.32;;;3.50;;
34481;SDS011;20720;48.886;9.388;2023-08-06T01:36:26;6.03;;;4.43;;
34481;SDS011;20720;48.886;9.388;2023-08-06T01:38:53;11.25;;;5.28;;
34481;SDS011;20720;48.886;9.388;2023-08-06T01:41:18;8.35;;;5.78;;
34481;SDS011;20720;48.886;9.388;2023-08-06T01:43:44;6.03;;;4.50;;
34481;SDS011;20720;48.886;9.388;2023-08-06T01:46:09;7.15;;;4.78;;
34481;SDS011;20720;48.886;9.388;2023-08-06T01:48:35;8.25;;;4.28;;
34481;SDS011;20720;48.886;9.388;2023-08-06T01:51:00;5.13;;;3.92;;
34481;SDS011;20720;48.886;9.388;2023-08-06T01:53:25;5.35;;;4.53;;
34481;SDS011;20720;48.886;9.388;2023-08-06T01:55:51;6.93;;;4.70;;
34481;SDS011;20720;48.886;9.388;2023-08-06T01:58:16;7.55;;;4.97;;
34481;SDS011;20720;48.886;9.388;2023-08-06T02:00:41;7.90;;;4.68;;
34481;SDS011;20720;48.886;9.388;2023-08-06T02:03:06;7.10;;;5.40;;
34481;SDS011;20720;48.886;9.388;2023-08-06T02:05:32;6.13;;;4.75;;
34481;SDS011;20720;48.886;9.388;2023-08-06T02:07:57;5.65;;;4.40;;
34481;SDS011;20720;48.886;9.388;2023-08-06T02:10:23;7.15;;;4.72;;
34481;SDS011;20720;48.886;9.388;2023-08-06T02:12:48;5.90;;;4.63;;
34481;SDS011;20720;48.886;9.388;2023-08-06T02:15:13;7.47;;;4.47;;
34481;SDS011;20720;48.886;9.388;2023-08-06T02:17:38;5.88;;;3.80;;
34481;SDS011;20720;48.886;9.388;2023-08-06T02:20:04;6.93;;;4.25;;
34481;SDS011;20720;48.886;9.388;2023-08-06T02:22:30;5.75;;;3.47;;
34481;SDS011;20720;48.886;9.388;2023-08-06T02:24:55;5.40;;;3.03;;
34481;SDS011;20720;48.886;9.388;2023-08-06T02:27:20;5.10;;;3.10;;
34481;SDS011;20720;48.886;9.388;2023-08-06T02:29:45;4.60;;;3.30;;
34481;SDS011;20720;48.886;9.388;2023-08-06T02:32:11;4.40;;;3.55;;
34481;SDS011;20720;48.886;9.388;2023-08-06T02:34:36;5.20;;;3.08;;
34481;SDS011;20720;48.886;9.388;2023-08-06T02:37:01;4.05;;;3.30;;
34481;SDS011;20720;48.886;9.388;2023-08-06T02:39:26;5.28;;;3.20;;
34481;SDS011;20720;48.886;9.388;2023-08-06T02:41:52;4.13;;;2.90;;
34481;SDS011;20720;48.886;9.388;2023-08-06T02:44:17;9.05;;;3.22;;
34481;SDS011;20720;48.886;9.388;2023-08-06T02:46:44;6.40;;;3.00;;
34481;SDS011;20720;48.886;9.388;2023-08-06T02:49:09;4.07;;;3.15;;
34481;SDS011;20720;48.886;9.388;2023-08-06T02:51:35;5.78;;;3.17;;
34481;SDS011;20720;48.886;9.388;2023-08-06T02:54:00;4.63;;;2.63;;
34481;SDS011;20720;48.886;9.388;2023-08-06T02:56:25;5.43;;;2.40;;
34481;SDS011;20720;48.886;9.388;2023-08-06T02:58:51;3.67;;;2.60;;
34481;SDS011;20720;48.886;9.388;2023-08-06T03:01:17;3.95;;;2.60;;
34481;SDS011;20720;48.886;9.388;2023-08-06T03:03:42;4.20;;;2.72;;
34481;SDS011;20720;48.886;9.388;2023-08-06T03:06:07;3.17;;;2.53;;
34481;SDS011;20720;48.886;9.388;2023-08-06T03:08:33;3.55;;;2.40;;
34481;SDS011;20720;48.886;9.388;2023-08-06T03:10:58;3.58;;;2.25;;
34481;SDS011;20720;48.886;9.388;2023-08-06T03:13:23;3.50;;;2.33;;
34481;SDS011;20720;48.886;9.388;2023-08-06T03:15:55;3.38;;;2.20;;
34481;SDS011;20720;48.886;9.388;2023-08-06T03:18:21;3.25;;;1.85;;
34481;SDS011;20720;48.886;9.388;2023-08-06T03:20:47;4.45;;;2.38;;
34481;SDS011;20720;48.886;9.388;2023-08-06T03:23:13;4.05;;;2.28;;
34481;SDS011;20720;48.886;9.388;2023-08-06T03:25:38;2.88;;;1.90;;
34481;SDS011;20720;48.886;9.388;2023-08-06T03:28:03;4.93;;;2.17;;
34481;SDS011;20720;48.886;9.388;2023-08-06T03:30:28;4.78;;;1.70;;
34481;SDS011;20720;48.886;9.388;2023-08-06T03:32:54;3.90;;;2.22;;
34481;SDS011;20720;48.886;9.388;2023-08-06T03:35:19;3.40;;;2.13;;
34481;SDS011;20720;48.886;9.388;2023-08-06T03:37:44;3.95;;;1.95;;
34481;SDS011;20720;48.886;9.388;2023-08-06T03:40:10;3.00;;;2.00;;
34481;SDS011;20720;48.886;9.388;2023-08-06T03:42:35;2.60;;;1.77;;
34481;SDS011;20720;48.886;9.388;2023-08-06T03:45:00;3.22;;;2.30;;
34481;SDS011;20720;48.886;9.388;2023-08-06T03:47:26;3.63;;;2.22;;
34481;SDS011;20720;48.886;9.388;2023-08-06T03:49:51;4.70;;;2.22;;
34481;SDS011;20720;48.886;9.388;2023-08-06T03:52:16;4.45;;;2.10;;
34481;SDS011;20720;48.886;9.388;2023-08-06T03:54:41;3.85;;;2.05;;
34481;SDS011;20720;48.886;9.388;2023-08-06T03:57:08;3.78;;;2.33;;
34481;SDS011;20720;48.886;9.388;2023-08-06T03:59:33;7.68;;;2.20;;
34481;SDS011;20720;48.886;9.388;2023-08-06T04:01:59;5.50;;;2.25;;
34481;SDS011;20720;48.886;9.388;2023-08-06T04:04:24;4.35;;;2.38;;
34481;SDS011;20720;48.886;9.388;2023-08-06T04:06:49;5.43;;;2.25;;
34481;SDS011;20720;48.886;9.388;2023-08-06T04:09:15;3.45;;;2.10;;
34481;SDS011;20720;48.886;9.388;2023-08-06T04:11:40;2.80;;;1.90;;
34481;SDS011;20720;48.886;9.388;2023-08-06T04:14:05;3.17;;;1.85;;
34481;SDS011;20720;48.886;9.388;2023-08-06T04:16:30;4.63;;;2.20;;
34481;SDS011;20720;48.886;9.388;2023-08-06T04:18:55;5.18;;;1.90;;
34481;SDS011;20720;48.886;9.388;2023-08-06T04:21:21;3.75;;;2.03;;
34481;SDS011;20720;48.886;9.388;2023-08-06T04:23:46;3.67;;;1.80;;
34481;SDS011;20720;48.886;9.388;2023-08-06T04:26:11;4.47;;;1.90;;
34481;SDS011;20720;48.886;9.388;2023-08-06T04:28:37;3.67;;;2.13;;
34481;SDS011;20720;48.886;9.388;2023-08-06T04:31:02;4.35;;;1.95;;
34481;SDS011;20720;48.886;9.388;2023-08-06T04:33:27;2.70;;;1.63;;
34481;SDS011;20720;48.886;9.388;2023-08-06T04:35:55;3.95;;;1.85;;
34481;SDS011;20720;48.886;9.388;2023-08-06T04:38:22;4.57;;;2.17;;
34481;SDS011;20720;48.886;9.388;2023-08-06T04:40:51;3.40;;;1.83;;
34481;SDS011;20720;48.886;9.388;2023-08-06T04:43:16;5.38;;;1.90;;
34481;SDS011;20720;48.886;9.388;2023-08-06T04:45:52;3.67;;;2.00;;
34481;SDS011;20720;48.886;9.388;2023-08-06T04:48:18;3.72;;;1.88;;
34481;SDS011;20720;48.886;9.388;2023-08-06T04:50:47;4.75;;;2.05;;
34481;SDS011;20720;48.886;9.388;2023-08-06T04:53:13;6.13;;;2.40;;
34481;SDS011;20720;48.886;9.388;2023-08-06T04:55:39;5.60;;;2.30;;
34481;SDS011;20720;48.886;9.388;2023-08-06T04:58:04;3.70;;;2.00;;
34481;SDS011;20720;48.886;9.388;2023-08-06T05:00:30;4.97;;;2.50;;
34481;SDS011;20720;48.886;9.388;2023-08-06T05:02:56;3.70;;;1.85;;
34481;SDS011;20720;48.886;9.388;2023-08-06T05:05:21;3.33;;;2.00;;
34481;SDS011;20720;48.886;9.388;2023-08-06T05:07:48;4.40;;;1.80;;
34481;SDS011;20720;48.886;9.388;2023-08-06T05:10:14;5.47;;;2.45;;
34481;SDS011;20720;48.886;9.388;2023-08-06T05:12:40;3.15;;;1.80;;
34481;SDS011;20720;48.886;9.388;2023-08-06T05:15:05;4.05;;;2.15;;
34481;SDS011;20720;48.886;9.388;2023-08-06T05:17:31;3.10;;;1.90;;
34481;SDS011;20720;48.886;9.388;2023-08-06T05:19:56;4.90;;;2.30;;
34481;SDS011;20720;48.886;9.388;2023-08-06T05:22:21;3.47;;;1.77;;
34481;SDS011;20720;48.886;9.388;2023-08-06T05:24:47;3.63;;;2.13;;
34481;SDS011;20720;48.886;9.388;2023-08-06T05:27:12;3.20;;;2.15;;
34481;SDS011;20720;48.886;9.388;2023-08-06T05:29:37;4.75;;;2.33;;
34481;SDS011;20720;48.886;9.388;2023-08-06T05:32:03;3.88;;;2.10;;
34481;SDS011;20720;48.886;9.388;2023-08-06T05:34:28;3.42;;;2.05;;
34481;SDS011;20720;48.886;9.388;2023-08-06T05:36:53;4.88;;;1.85;;
34481;SDS011;20720;48.886;9.388;2023-08-06T05:39:19;5.53;;;2.50;;
34481;SDS011;20720;48.886;9.388;2023-08-06T05:41:44;2.92;;;1.92;;
34481;SDS011;20720;48.886;9.388;2023-08-06T05:44:09;6.88;;;2.03;;
34481;SDS011;20720;48.886;9.388;2023-08-06T05:46:34;5.78;;;1.80;;
34481;SDS011;20720;48.886;9.388;2023-08-06T05:49:00;6.88;;;1.92;;
34481;SDS011;20720;48.886;9.388;2023-08-06T05:51:26;2.80;;;1.80;;
34481;SDS011;20720;48.886;9.388;2023-08-06T05:53:51;4.72;;;1.52;;
34481;SDS011;20720;48.886;9.388;2023-08-06T05:56:17;3.65;;;1.77;;
34481;SDS011;20720;48.886;9.388;2023-08-06T05:58:42;3.15;;;1.52;;
34481;SDS011;20720;48.886;9.388;2023-08-06T06:01:07;3.88;;;1.85;;
34481;SDS011;20720;48.886;9.388;2023-08-06T06:03:32;4.05;;;1.40;;
34481;SDS011;20720;48.886;9.388;2023-08-06T06:05:58;2.28;;;1.45;;
34481;SDS011;20720;48.886;9.388;2023-08-06T06:08:26;6.35;;;1.75;;
34481;SDS011;20720;48.886;9.388;2023-08-06T06:10:51;2.80;;;1.23;;
34481;SDS011;20720;48.886;9.388;2023-08-06T06:13:16;3.92;;;1.40;;
34481;SDS011;20720;48.886;9.388;2023-08-06T06:15:41;3.10;;;1.50;;
34481;SDS011;20720;48.886;9.388;2023-08-06T06:18:07;2.38;;;1.40;;
34481;SDS011;20720;48.886;9.388;2023-08-06T06:20:32;4.22;;;1.65;;
34481;SDS011;20720;48.886;9.388;2023-08-06T06:22:58;3.38;;;1.40;;
34481;SDS011;20720;48.886;9.388;2023-08-06T06:25:23;4.75;;;1.90;;
34481;SDS011;20720;48.886;9.388;2023-08-06T06:27:48;2.42;;;1.30;;
34481;SDS011;20720;48.886;9.388;2023-08-06T06:30:13;6.65;;;1.23;;
34481;SDS011;20720;48.886;9.388;2023-08-06T06:32:39;2.95;;;1.20;;
34481;SDS011;20720;48.886;9.388;2023-08-06T06:35:05;3.17;;;1.13;;
34481;SDS011;20720;48.886;9.388;2023-08-06T06:37:31;2.33;;;0.90;;
34481;SDS011;20720;48.886;9.388;2023-08-06T06:39:56;6.25;;;1.52;;
34481;SDS011;20720;48.886;9.388;2023-08-06T06:42:21;2.90;;;1.35;;
34481;SDS011;20720;48.886;9.388;2023-08-06T06:44:47;2.38;;;1.10;;
34481;SDS011;20720;48.886;9.388;2023-08-06T06:47:13;4.90;;;1.30;;
34481;SDS011;20720;48.886;9.388;2023-08-06T06:49:38;3.33;;;1.17;;
34481;SDS011;20720;48.886;9.388;2023-08-06T06:52:03;2.17;;;1.17;;
34481;SDS011;20720;48.886;9.388;2023-08-06T06:54:29;2.25;;;1.25;;
34481;SDS011;20720;48.886;9.388;2023-08-06T06:56:54;2.92;;;1.40;;
34481;SDS011;20720;48.886;9.388;2023-08-06T06:59:19;3.90;;;1.17;;
34481;SDS011;20720;48.886;9.388;2023-08-06T07:01:45;1.85;;;0.70;;
34481;SDS011;20720;48.886;9.388;2023-08-06T07:04:10;2.15;;;0.80;;
34481;SDS011;20720;48.886;9.388;2023-08-06T07:06:35;2.40;;;0.80;;
34481;SDS011;20720;48.886;9.388;2023-08-06T07:09:00;1.55;;;0.50;;
34481;SDS011;20720;48.886;9.388;2023-08-06T07:11:26;3.55;;;0.68;;
34481;SDS011;20720;48.886;9.388;2023-08-06T07:13:55;4.10;;;0.55;;
34481;SDS011;20720;48.886;9.388;2023-08-06T07:16:23;2.67;;;0.60;;
34481;SDS011;20720;48.886;9.388;2023-08-06T07:18:48;3.47;;;0.60;;
34481;SDS011;20720;48.886;9.388;2023-08-06T07:21:13;1.88;;;0.60;;
34481;SDS011;20720;48.886;9.388;2023-08-06T07:23:39;1.50;;;0.55;;
34481;SDS011;20720;48.886;9.388;2023-08-06T07:26:04;1.23;;;0.50;;
34481;SDS011;20720;48.886;9.388;2023-08-06T07:28:29;1.23;;;0.60;;
34481;SDS011;20720;48.886;9.388;2023-08-06T07:30:54;3.30;;;0.60;;
34481;SDS011;20720;48.886;9.388;2023-08-06T07:33:20;2.22;;;0.55;;
34481;SDS011;20720;48.886;9.388;2023-08-06T07:35:45;2.40;;;0.70;;
34481;SDS011;20720;48.886;9.388;2023-08-06T07:38:10;1.08;;;0.43;;
34481;SDS011;20720;48.886;9.388;2023-08-06T07:40:36;1.92;;;0.55;;
34481;SDS011;20720;48.886;9.388;2023-08-06T07:43:02;1.23;;;0.30;;
34481;SDS011;20720;48.886;9.388;2023-08-06T07:45:27;2.50;;;0.50;;
34481;SDS011;20720;48.886;9.388;2023-08-06T07:47:53;1.63;;;0.43;;
34481;SDS011;20720;48.886;9.388;2023-08-06T07:50:18;1.52;;;0.50;;
34481;SDS011;20720;48.886;9.388;2023-08-06T07:52:43;1.55;;;0.30;;
34481;SDS011;20720;48.886;9.388;2023-08-06T07:55:08;2.28;;;0.40;;
34481;SDS011;20720;48.886;9.388;2023-08-06T07:57:34;1.65;;;0.40;;
34481;SDS011;20720;48.886;9.388;2023-08-06T07:59:59;1.20;;;0.40;;
34481;SDS011;20720;48.886;9.388;2023-08-06T08:02:25;2.45;;;0.50;;
34481;SDS011;20720;48.886;9.388;2023-08-06T08:04:51;2.22;;;0.60;;
34481;SDS011;20720;48.886;9.388;2023-08-06T08:07:16;0.70;;;0.30;;
34481;SDS011;20720;48.886;9.388;2023-08-06T08:09:41;3.22;;;0.60;;
34481;SDS011;20720;48.886;9.388;2023-08-06T08:12:07;1.10;;;0.30;;
34481;SDS011;20720;48.886;9.388;2023-08-06T08:14:32;0.60;;;0.20;;
34481;SDS011;20720;48.886;9.388;2023-08-06T08:17:00;1.23;;;0.30;;
34481;SDS011;20720;48.886;9.388;2023-08-06T08:19:29;0.80;;;0.30;;
34481;SDS011;20720;48.886;9.388;2023-08-06T08:21:55;1.48;;;0.30;;
34481;SDS011;20720;48.886;9.388;2023-08-06T08:24:20;1.20;;;0.30;;
34481;SDS011;20720;48.886;9.388;2023-08-06T08:26:48;3.55;;;0.30;;
34481;SDS011;20720;48.886;9.388;2023-08-06T08:29:17;1.23;;;0.20;;
34481;SDS011;20720;48.886;9.388;2023-08-06T08:31:44;1.40;;;0.20;;
34481;SDS011;20720;48.886;9.388;2023-08-06T08:34:09;0.40;;;0.10;;
34481;SDS011;20720;48.886;9.388;2023-08-06T08:36:34;0.70;;;0.20;;
34481;SDS011;20720;48.886;9.388;2023-08-06T08:39:00;0.38;;;0.10;;
34481;SDS011;20720;48.886;9.388;2023-08-06T08:41:27;0.50;;;0.13;;
34481;SDS011;20720;48.886;9.388;2023-08-06T08:43:54;1.00;;;0.17;;
34481;SDS011;20720;48.886;9.388;2023-08-06T08:46:20;1.10;;;0.30;;
34481;SDS011;20720;48.886;9.388;2023-08-06T08:48:46;0.40;;;0.10;;
34481;SDS011;20720;48.886;9.388;2023-08-06T08:51:12;1.13;;;0.20;;
34481;SDS011;20720;48.886;9.388;2023-08-06T08:53:38;0.55;;;0.22;;
34481;SDS011;20720;48.886;9.388;2023-08-06T08:56:04;0.55;;;0.10;;
34481;SDS011;20720;48.886;9.388;2023-08-06T08:58:30;0.32;;;0.10;;
34481;SDS011;20720;48.886;9.388;2023-08-06T09:00:55;2.00;;;0.00;;
34481;SDS011;20720;48.886;9.388;2023-08-06T09:03:21;0.10;;;0.00;;
34481;SDS011;20720;48.886;9.388;2023-08-06T09:05:48;0.10;;;0.00;;
34481;SDS011;20720;48.886;9.388;2023-08-06T09:08:17;0.30;;;0.10;;
34481;SDS011;20720;48.886;9.388;2023-08-06T09:10:44;0.00;;;0.00;;
34481;SDS011;20720;48.886;9.388;2023-08-06T09:13:11;0.28;;;0.10;;
34481;SDS011;20720;48.886;9.388;2023-08-06T09:15:37;0.20;;;0.00;;
34481;SDS011;20720;48.886;9.388;2023-08-06T09:18:08;0.70;;;0.13;;
34481;SDS011;20720;48.886;9.388;2023-08-06T09:20:34;0.10;;;0.00;;
34481;SDS011;20720;48.886;9.388;2023-08-06T09:23:06;1.00;;;0.22;;
34481;SDS011;20720;48.886;9.388;2023-08-06T09:25:32;0.40;;;0.20;;
34481;SDS011;20720;48.886;9.388;2023-08-06T09:27:57;1.00;;;0.10;;
34481;SDS011;20720;48.886;9.388;2023-08-06T09:30:30;0.17;;;0.10;;
34481;SDS011;20720;48.886;9.388;2023-08-06T09:32:56;0.20;;;0.00;;
34481;SDS011;20720;48.886;9.388;2023-08-06T09:35:22;0.30;;;0.08;;
34481;SDS011;20720;48.886;9.388;2023-08-06T09:37:47;1.60;;;0.13;;
34481;SDS011;20720;48.886;9.388;2023-08-06T09:40:28;0.28;;;0.10;;
34481;SDS011;20720;48.886;9.388;2023-08-06T09:42:55;0.32;;;0.00;;
34481;SDS011;20720;48.886;9.388;2023-08-06T09:45:21;0.85;;;0.20;;
34481;SDS011;20720;48.886;9.388;2023-08-06T09:47:48;0.10;;;0.00;;
34481;SDS011;20720;48.886;9.388;2023-08-06T09:50:20;0.30;;;0.00;;
34481;SDS011;20720;48.886;9.388;2023-08-06T09:52:49;0.00;;;0.00;;
34481;SDS011;20720;48.886;9.388;2023-08-06T09:55:16;1.75;;;0.25;;
34481;SDS011;20720;48.886;9.388;2023-08-06T09:57:43;0.82;;;0.38;;
34481;SDS011;20720;48.886;9.388;2023-08-06T10:00:09;0.70;;;0.10;;
34481;SDS011;20720;48.886;9.388;2023-08-06T10:02:37;0.17;;;0.00;;
34481;SDS011;20720;48.886;9.388;2023-08-06T10:05:03;0.90;;;0.10;;
34481;SDS011;20720;48.886;9.388;2023-08-06T10:07:29;0.40;;;0.20;;
34481;SDS011;20720;48.886;9.388;2023-08-06T10:09:55;0.22;;;0.13;;
34481;SDS011;20720;48.886;9.388;2023-08-06T10:12:21;0.63;;;0.10;;
34481;SDS011;20720;48.886;9.388;2023-08-06T10:14:47;0.10;;;0.00;;
34481;SDS011;20720;48.886;9.388;2023-08-06T10:17:14;0.00;;;0.00;;
34481;SDS011;20720;48.886;9.388;2023-08-06T10:19:40;0.52;;;0.20;;
34481;SDS011;20720;48.886;9.388;2023-08-06T10:22:12;0.08;;;0.05;;
34481;SDS011;20720;48.886;9.388;2023-08-06T10:24:48;0.08;;;0.00;;
34481;SDS011;20720;48.886;9.388;2023-08-06T10:32:46;0.30;;;0.10;;
34481;SDS011;20720;48.886;9.388;2023-08-06T10:35:27;0.95;;;0.10;;
34481;SDS011;20720;48.886;9.388;2023-08-06T10:37:52;0.40;;;0.10;;
34481;SDS011;20720;48.886;9.388;2023-08-06T10:40:20;0.05;;;0.00;;
34481;SDS011;20720;48.886;9.388;2023-08-06T10:42:46;0.20;;;0.00;;
34481;SDS011;20720;48.886;9.388;2023-08-06T10:45:15;0.20;;;0.10;;
34481;SDS011;20720;48.886;9.388;2023-08-06T10:47:41;0.32;;;0.15;;
34481;SDS011;20720;48.886;9.388;2023-08-06T10:50:10;0.20;;;0.03;;
34481;SDS011;20720;48.886;9.388;2023-08-06T10:52:39;0.10;;;0.10;;
34481;SDS011;20720;48.886;9.388;2023-08-06T10:55:05;0.45;;;0.10;;
34481;SDS011;20720;48.886;9.388;2023-08-06T10:57:30;0.38;;;0.00;;
34481;SDS011;20720;48.886;9.388;2023-08-06T10:59:56;0.55;;;0.00;;
34481;SDS011;20720;48.886;9.388;2023-08-06T11:02:21;0.30;;;0.10;;
34481;SDS011;20720;48.886;9.388;2023-08-06T11:04:47;0.25;;;0.10;;
34481;SDS011;20720;48.886;9.388;2023-08-06T11:07:13;0.57;;;0.13;;
34481;SDS011;20720;48.886;9.388;2023-08-06T11:09:38;0.20;;;0.10;;
34481;SDS011;20720;48.886;9.388;2023-08-06T11:12:09;0.60;;;0.20;;
34481;SDS011;20720;48.886;9.388;2023-08-06T11:14:35;2.47;;;2.25;;
34481;SDS011;20720;48.886;9.388;2023-08-06T11:17:00;3.42;;;1.08;;
34481;SDS011;20720;48.886;9.388;2023-08-06T11:19:26;2.35;;;1.00;;
34481;SDS011;20720;48.886;9.388;2023-08-06T11:21:51;2.17;;;1.13;;
34481;SDS011;20720;48.886;9.388;2023-08-06T11:24:17;0.93;;;0.35;;
34481;SDS011;20720;48.886;9.388;2023-08-06T11:26:42;0.82;;;0.50;;
34481;SDS011;20720;48.886;9.388;2023-08-06T11:29:09;1.40;;;0.40;;
34481;SDS011;20720;48.886;9.388;2023-08-06T11:31:35;2.13;;;1.77;;
34481;SDS011;20720;48.886;9.388;2023-08-06T11:34:01;4.55;;;1.48;;
34481;SDS011;20720;48.886;9.388;2023-08-06T11:36:33;0.95;;;0.50;;
34481;SDS011;20720;48.886;9.388;2023-08-06T11:41:27;1.83;;;0.88;;
34481;SDS011;20720;48.886;9.388;2023-08-06T11:43:53;1.23;;;0.73;;
34481;SDS011;20720;48.886;9.388;2023-08-06T11:46:18;1.83;;;0.60;;
34481;SDS011;20720;48.886;9.388;2023-08-06T11:48:53;0.88;;;0.50;;
34481;SDS011;20720;48.886;9.388;2023-08-06T11:51:22;1.00;;;0.50;;
34481;SDS011;20720;48.886;9.388;2023-08-06T11:53:49;1.52;;;0.60;;
34481;SDS011;20720;48.886;9.388;2023-08-06T11:56:15;2.00;;;0.60;;
34481;SDS011;20720;48.886;9.388;2023-08-06T11:58:41;2.63;;;0.75;;
34481;SDS011;20720;48.886;9.388;2023-08-06T12:01:07;2.13;;;1.42;;
34481;SDS011;20720;48.886;9.388;2023-08-06T12:03:32;5.68;;;4.43;;
34481;SDS011;20720;48.886;9.388;2023-08-06T12:05:58;8.20;;;5.85;;
34481;SDS011;20720;48.886;9.388;2023-08-06T12:08:26;2.75;;;1.85;;
34481;SDS011;20720;48.886;9.388;2023-08-06T12:10:52;3.97;;;2.67;;
34481;SDS011;20720;48.886;9.388;2023-08-06T12:13:18;2.92;;;1.48;;
34481;SDS011;20720;48.886;9.388;2023-08-06T12:15:44;2.58;;;1.98;;
34481;SDS011;20720;48.886;9.388;2023-08-06T12:18:10;2.90;;;1.10;;
34481;SDS011;20720;48.886;9.388;2023-08-06T12:20:35;4.10;;;1.40;;
34481;SDS011;20720;48.886;9.388;2023-08-06T12:23:01;3.80;;;2.45;;
34481;SDS011;20720;48.886;9.388;2023-08-06T12:25:26;3.67;;;1.30;;
34481;SDS011;20720;48.886;9.388;2023-08-06T12:27:51;5.28;;;1.30;;
34481;SDS011;20720;48.886;9.388;2023-08-06T12:30:16;2.42;;;1.20;;
34481;SDS011;20720;48.886;9.388;2023-08-06T12:32:42;2.97;;;1.35;;
34481;SDS011;20720;48.886;9.388;2023-08-06T12:35:07;3.60;;;1.67;;
34481;SDS011;20720;48.886;9.388;2023-08-06T12:37:33;2.65;;;1.50;;
34481;SDS011;20720;48.886;9.388;2023-08-06T12:39:59;2.22;;;1.15;;
34481;SDS011;20720;48.886;9.388;2023-08-06T12:42:24;4.53;;;1.45;;
34481;SDS011;20720;48.886;9.388;2023-08-06T12:44:49;3.60;;;1.50;;
34481;SDS011;20720;48.886;9.388;2023-08-06T12:47:15;2.60;;;1.25;;
34481;SDS011;20720;48.886;9.388;2023-08-06T12:49:41;2.50;;;1.80;;
34481;SDS011;20720;48.886;9.388;2023-08-06T12:52:06;3.88;;;1.77;;
34481;SDS011;20720;48.886;9.388;2023-08-06T12:54:34;4.50;;;1.48;;
34481;SDS011;20720;48.886;9.388;2023-08-06T12:57:01;3.03;;;1.50;;
34481;SDS011;20720;48.886;9.388;2023-08-06T12:59:27;4.25;;;1.70;;
34481;SDS011;20720;48.886;9.388;2023-08-06T13:01:53;1.98;;;1.15;;
34481;SDS011;20720;48.886;9.388;2023-08-06T13:04:18;3.22;;;1.40;;
34481;SDS011;20720;48.886;9.388;2023-08-06T13:06:43;2.45;;;1.40;;
34481;SDS011;20720;48.886;9.388;2023-08-06T13:09:09;3.78;;;1.80;;
34481;SDS011;20720;48.886;9.388;2023-08-06T13:11:35;2.60;;;1.35;;
34481;SDS011;20720;48.886;9.388;2023-08-06T13:14:06;3.58;;;1.10;;
34481;SDS011;20720;48.886;9.388;2023-08-06T13:16:34;1.50;;;1.10;;
34481;SDS011;20720;48.886;9.388;2023-08-06T13:19:00;2.40;;;1.10;;
34481;SDS011;20720;48.886;9.388;2023-08-06T13:21:31;4.60;;;1.23;;
34481;SDS011;20720;48.886;9.388;2023-08-06T13:23:59;4.20;;;3.13;;
34481;SDS011;20720;48.886;9.388;2023-08-06T13:26:24;7.20;;;4.63;;
34481;SDS011;20720;48.886;9.388;2023-08-06T13:28:49;11.77;;;7.97;;
34481;SDS011;20720;48.886;9.388;2023-08-06T13:31:15;13.18;;;8.18;;
34481;SDS011;20720;48.886;9.388;2023-08-06T13:33:41;14.20;;;9.05;;
34481;SDS011;20720;48.886;9.388;2023-08-06T13:36:06;15.18;;;9.73;;
34481;SDS011;20720;48.886;9.388;2023-08-06T13:38:31;12.18;;;7.85;;
34481;SDS011;20720;48.886;9.388;2023-08-06T13:40:56;6.82;;;4.10;;
34481;SDS011;20720;48.886;9.388;2023-08-06T13:43:22;5.55;;;3.25;;
34481;SDS011;20720;48.886;9.388;2023-08-06T13:45:47;3.90;;;2.20;;
34481;SDS011;20720;48.886;9.388;2023-08-06T13:48:12;6.57;;;1.20;;
34481;SDS011;20720;48.886;9.388;2023-08-06T13:50:38;4.43;;;1.65;;
34481;SDS011;20720;48.886;9.388;2023-08-06T13:53:03;3.25;;;2.40;;
34481;SDS011;20720;48.886;9.388;2023-08-06T13:55:28;4.50;;;0.90;;
34481;SDS011;20720;48.886;9.388;2023-08-06T13:57:54;2.00;;;1.50;;
34481;SDS011;20720;48.886;9.388;2023-08-06T14:00:19;1.80;;;0.88;;
34481;SDS011;20720;48.886;9.388;2023-08-06T14:02:44;1.42;;;0.75;;
34481;SDS011;20720;48.886;9.388;2023-08-06T14:05:10;1.02;;;0.60;;
34481;SDS011;20720;48.886;9.388;2023-08-06T14:07:35;1.20;;;0.68;;
34481;SDS011;20720;48.886;9.388;2023-08-06T14:10:01;2.88;;;2.47;;
34481;SDS011;20720;48.886;9.388;2023-08-06T14:12:26;1.60;;;0.90;;
34481;SDS011;20720;48.886;9.388;2023-08-06T14:14:51;1.52;;;1.00;;
34481;SDS011;20720;48.886;9.388;2023-08-06T14:17:17;3.47;;;0.80;;
34481;SDS011;20720;48.886;9.388;2023-08-06T14:19:42;1.13;;;0.40;;
34481;SDS011;20720;48.886;9.388;2023-08-06T14:22:07;1.35;;;0.68;;
34481;SDS011;20720;48.886;9.388;2023-08-06T14:24:32;1.90;;;0.73;;
34481;SDS011;20720;48.886;9.388;2023-08-06T14:26:58;2.03;;;0.90;;
34481;SDS011;20720;48.886;9.388;2023-08-06T14:29:23;3.38;;;1.02;;
34481;SDS011;20720;48.886;9.388;2023-08-06T14:31:49;2.65;;;0.85;;
34481;SDS011;20720;48.886;9.388;2023-08-06T14:34:15;2.55;;;1.05;;
34481;SDS011;20720;48.886;9.388;2023-08-06T14:36:41;1.60;;;0.93;;
34481;SDS011;20720;48.886;9.388;2023-08-06T14:39:06;2.95;;;1.83;;
34481;SDS011;20720;48.886;9.388;2023-08-06T14:41:31;3.08;;;1.73;;
34481;SDS011;20720;48.886;9.388;2023-08-06T14:43:56;2.63;;;0.95;;
34481;SDS011;20720;48.886;9.388;2023-08-06T14:46:22;2.03;;;1.20;;
34481;SDS011;20720;48.886;9.388;2023-08-06T14:48:47;2.20;;;0.80;;
34481;SDS011;20720;48.886;9.388;2023-08-06T14:51:12;2.67;;;0.98;;
34481;SDS011;20720;48.886;9.388;2023-08-06T14:53:38;2.50;;;1.67;;
34481;SDS011;20720;48.886;9.388;2023-08-06T14:56:04;2.17;;;0.98;;
34481;SDS011;20720;48.886;9.388;2023-08-06T14:58:29;2.22;;;1.10;;